Terminal Aerodrome Forecast
Issued by NWS

Home | Current Version | Previous Version | Text Only | Print | Product List | Glossary Off
Versions: 1 2 3 4 5 6 7 8 9 10 11 12 13 14 15 16 17 18 19 20 21

590
FTUS43 KMPX 300257 AAA
TAFRWF
TAF AMD
KRWF 300257Z 3003/3024 27009KT 3SM -SN BR SCT004 OVC010
      TEMPO 3003/3007 1 1/2SM -SN BR OVC004
     FM300700 30008KT 2SM -SN BR OVC004
     FM301800 32010KT 4SM -SN BR OVC008=

USA.gov is the U.S. government's official web portal to all federal, state and local government web resources and services.